sensor_id;sensor_type;location;lat;lon;timestamp;temperature;humidity
19039;DHT22;9652;49.014;12.052;2023-07-30T00:02:15;20.90;83.80
19039;DHT22;9652;49.014;12.052;2023-07-30T00:04:43;20.90;83.80
19039;DHT22;9652;49.014;12.052;2023-07-30T00:07:10;20.90;83.80
19039;DHT22;9652;49.014;12.052;2023-07-30T00:09:39;20.80;83.80
19039;DHT22;9652;49.014;12.052;2023-07-30T00:12:07;20.80;83.90
19039;DHT22;9652;49.014;12.052;2023-07-30T00:14:35;20.80;83.90
19039;DHT22;9652;49.014;12.052;2023-07-30T00:17:02;20.80;83.90
19039;DHT22;9652;49.014;12.052;2023-07-30T00:19:30;20.80;83.90
19039;DHT22;9652;49.014;12.052;2023-07-30T00:21:57;20.70;83.80
19039;DHT22;9652;49.014;12.052;2023-07-30T00:24:24;20.80;84.00
19039;DHT22;9652;49.014;12.052;2023-07-30T00:26:52;20.70;84.00
19039;DHT22;9652;49.014;12.052;2023-07-30T00:29:19;20.70;84.20
19039;DHT22;9652;49.014;12.052;2023-07-30T00:31:47;20.70;84.30
19039;DHT22;9652;49.014;12.052;2023-07-30T00:34:14;20.70;84.40
19039;DHT22;9652;49.014;12.052;2023-07-30T00:36:41;20.70;84.60
19039;DHT22;9652;49.014;12.052;2023-07-30T00:39:08;20.70;84.80
19039;DHT22;9652;49.014;12.052;2023-07-30T00:41:36;20.70;85.00
19039;DHT22;9652;49.014;12.052;2023-07-30T00:44:05;20.70;85.10
19039;DHT22;9652;49.014;12.052;2023-07-30T00:46:32;20.70;85.20
19039;DHT22;9652;49.014;12.052;2023-07-30T00:49:01;20.70;85.30
19039;DHT22;9652;49.014;12.052;2023-07-30T00:51:29;20.80;85.50
19039;DHT22;9652;49.014;12.052;2023-07-30T00:53:58;20.80;85.60
19039;DHT22;9652;49.014;12.052;2023-07-30T00:56:26;20.80;86.40
19039;DHT22;9652;49.014;12.052;2023-07-30T00:58:54;20.80;85.60
19039;DHT22;9652;49.014;12.052;2023-07-30T01:01:23;20.80;85.60
19039;DHT22;9652;49.014;12.052;2023-07-30T01:03:50;20.80;85.60
19039;DHT22;9652;49.014;12.052;2023-07-30T01:06:17;20.90;85.70
19039;DHT22;9652;49.014;12.052;2023-07-30T01:08:45;20.90;85.80
19039;DHT22;9652;49.014;12.052;2023-07-30T01:11:13;20.90;85.80
19039;DHT22;9652;49.014;12.052;2023-07-30T01:13:42;21.00;86.10
19039;DHT22;9652;49.014;12.052;2023-07-30T01:16:09;20.90;86.00
19039;DHT22;9652;49.014;12.052;2023-07-30T01:18:38;21.00;86.10
19039;DHT22;9652;49.014;12.052;2023-07-30T01:21:07;21.00;86.20
19039;DHT22;9652;49.014;12.052;2023-07-30T01:23:34;21.00;86.20
19039;DHT22;9652;49.014;12.052;2023-07-30T01:26:06;21.10;86.40
19039;DHT22;9652;49.014;12.052;2023-07-30T01:28:51;21.10;86.50
19039;DHT22;9652;49.014;12.052;2023-07-30T01:31:23;21.10;86.50
19039;DHT22;9652;49.014;12.052;2023-07-30T01:33:54;21.10;86.40
19039;DHT22;9652;49.014;12.052;2023-07-30T01:36:24;21.10;86.30
19039;DHT22;9652;49.014;12.052;2023-07-30T01:38:52;21.20;86.40
19039;DHT22;9652;49.014;12.052;2023-07-30T01:41:20;21.20;86.20
19039;DHT22;9652;49.014;12.052;2023-07-30T01:43:47;21.20;86.20
19039;DHT22;9652;49.014;12.052;2023-07-30T01:46:14;21.20;86.10
19039;DHT22;9652;49.014;12.052;2023-07-30T01:48:41;21.20;86.00
19039;DHT22;9652;49.014;12.052;2023-07-30T01:51:08;21.20;86.10
19039;DHT22;9652;49.014;12.052;2023-07-30T01:53:37;21.30;86.20
19039;DHT22;9652;49.014;12.052;2023-07-30T01:56:04;21.20;86.40
19039;DHT22;9652;49.014;12.052;2023-07-30T01:58:31;21.30;86.60
19039;DHT22;9652;49.014;12.052;2023-07-30T02:00:58;21.30;86.60
19039;DHT22;9652;49.014;12.052;2023-07-30T02:03:25;21.30;86.40
19039;DHT22;9652;49.014;12.052;2023-07-30T02:05:52;21.30;86.30
19039;DHT22;9652;49.014;12.052;2023-07-30T02:08:19;21.40;86.40
19039;DHT22;9652;49.014;12.052;2023-07-30T02:10:55;21.30;86.20
19039;DHT22;9652;49.014;12.052;2023-07-30T02:13:23;21.30;86.60
19039;DHT22;9652;49.014;12.052;2023-07-30T02:15:51;21.30;86.20
19039;DHT22;9652;49.014;12.052;2023-07-30T02:18:18;21.40;86.40
19039;DHT22;9652;49.014;12.052;2023-07-30T02:20:45;21.40;86.60
19039;DHT22;9652;49.014;12.052;2023-07-30T02:23:14;21.40;86.70
19039;DHT22;9652;49.014;12.052;2023-07-30T02:25:42;21.40;87.00
19039;DHT22;9652;49.014;12.052;2023-07-30T02:28:11;21.40;87.10
19039;DHT22;9652;49.014;12.052;2023-07-30T02:30:38;21.40;87.20
19039;DHT22;9652;49.014;12.052;2023-07-30T02:33:05;21.40;87.30
19039;DHT22;9652;49.014;12.052;2023-07-30T02:35:32;21.40;87.40
19039;DHT22;9652;49.014;12.052;2023-07-30T02:37:59;21.40;87.60
19039;DHT22;9652;49.014;12.052;2023-07-30T02:40:26;21.50;87.70
19039;DHT22;9652;49.014;12.052;2023-07-30T02:42:53;21.40;87.80
19039;DHT22;9652;49.014;12.052;2023-07-30T02:45:22;21.40;87.70
19039;DHT22;9652;49.014;12.052;2023-07-30T02:47:49;21.40;87.80
19039;DHT22;9652;49.014;12.052;2023-07-30T02:50:16;21.30;87.90
19039;DHT22;9652;49.014;12.052;2023-07-30T02:52:43;21.40;88.30
19039;DHT22;9652;49.014;12.052;2023-07-30T02:55:10;21.40;88.40
19039;DHT22;9652;49.014;12.052;2023-07-30T02:57:37;21.40;88.50
19039;DHT22;9652;49.014;12.052;2023-07-30T03:00:06;21.40;88.60
19039;DHT22;9652;49.014;12.052;2023-07-30T03:02:35;21.40;88.60
19039;DHT22;9652;49.014;12.052;2023-07-30T03:05:03;21.40;88.70
19039;DHT22;9652;49.014;12.052;2023-07-30T03:07:31;21.40;88.60
19039;DHT22;9652;49.014;12.052;2023-07-30T03:09:58;21.40;88.60
19039;DHT22;9652;49.014;12.052;2023-07-30T03:12:25;21.40;88.60
19039;DHT22;9652;49.014;12.052;2023-07-30T03:14:52;21.40;88.60
19039;DHT22;9652;49.014;12.052;2023-07-30T03:17:19;21.30;88.40
19039;DHT22;9652;49.014;12.052;2023-07-30T03:19:48;21.30;88.40
19039;DHT22;9652;49.014;12.052;2023-07-30T03:22:15;21.30;88.40
19039;DHT22;9652;49.014;12.052;2023-07-30T03:24:42;21.20;88.20
19039;DHT22;9652;49.014;12.052;2023-07-30T03:27:12;21.20;88.20
19039;DHT22;9652;49.014;12.052;2023-07-30T03:29:39;21.20;88.10
19039;DHT22;9652;49.014;12.052;2023-07-30T03:32:06;21.20;88.10
19039;DHT22;9652;49.014;12.052;2023-07-30T03:34:34;21.10;88.00
19039;DHT22;9652;49.014;12.052;2023-07-30T03:37:02;21.10;88.20
19039;DHT22;9652;49.014;12.052;2023-07-30T03:39:30;21.10;88.50
19039;DHT22;9652;49.014;12.052;2023-07-30T03:41:57;21.10;88.80
19039;DHT22;9652;49.014;12.052;2023-07-30T03:44:24;21.00;88.90
19039;DHT22;9652;49.014;12.052;2023-07-30T03:46:51;21.00;88.60
19039;DHT22;9652;49.014;12.052;2023-07-30T03:49:18;21.00;88.50
19039;DHT22;9652;49.014;12.052;2023-07-30T03:51:45;21.00;88.40
19039;DHT22;9652;49.014;12.052;2023-07-30T03:54:13;21.00;88.40
19039;DHT22;9652;49.014;12.052;2023-07-30T03:56:40;21.00;88.40
19039;DHT22;9652;49.014;12.052;2023-07-30T03:59:07;20.90;88.30
19039;DHT22;9652;49.014;12.052;2023-07-30T04:01:34;20.90;88.20
19039;DHT22;9652;49.014;12.052;2023-07-30T04:04:02;20.80;88.10
19039;DHT22;9652;49.014;12.052;2023-07-30T04:06:29;20.80;88.80
19039;DHT22;9652;49.014;12.052;2023-07-30T04:08:56;20.80;87.90
19039;DHT22;9652;49.014;12.052;2023-07-30T04:11:24;20.70;87.70
19039;DHT22;9652;49.014;12.052;2023-07-30T04:13:51;20.70;87.70
19039;DHT22;9652;49.014;12.052;2023-07-30T04:16:18;20.70;87.70
19039;DHT22;9652;49.014;12.052;2023-07-30T04:18:45;20.60;88.60
19039;DHT22;9652;49.014;12.052;2023-07-30T04:21:12;20.60;88.00
19039;DHT22;9652;49.014;12.052;2023-07-30T04:23:41;20.50;88.00
19039;DHT22;9652;49.014;12.052;2023-07-30T04:26:08;20.50;88.00
19039;DHT22;9652;49.014;12.052;2023-07-30T04:28:36;20.50;88.20
19039;DHT22;9652;49.014;12.052;2023-07-30T04:31:04;20.50;88.30
19039;DHT22;9652;49.014;12.052;2023-07-30T04:33:31;20.40;88.30
19039;DHT22;9652;49.014;12.052;2023-07-30T04:35:59;20.40;88.50
19039;DHT22;9652;49.014;12.052;2023-07-30T04:38:26;20.40;88.50
19039;DHT22;9652;49.014;12.052;2023-07-30T04:40:53;20.40;88.50
19039;DHT22;9652;49.014;12.052;2023-07-30T04:43:20;20.40;88.70
19039;DHT22;9652;49.014;12.052;2023-07-30T04:45:54;20.30;88.70
19039;DHT22;9652;49.014;12.052;2023-07-30T04:48:22;20.40;88.90
19039;DHT22;9652;49.014;12.052;2023-07-30T04:50:49;20.30;88.90
19039;DHT22;9652;49.014;12.052;2023-07-30T04:53:16;20.30;89.00
19039;DHT22;9652;49.014;12.052;2023-07-30T04:55:45;20.30;89.30
19039;DHT22;9652;49.014;12.052;2023-07-30T04:58:12;20.30;90.00
19039;DHT22;9652;49.014;12.052;2023-07-30T05:00:39;20.30;90.20
19039;DHT22;9652;49.014;12.052;2023-07-30T05:03:08;20.40;90.40
19039;DHT22;9652;49.014;12.052;2023-07-30T05:05:35;20.40;90.50
19039;DHT22;9652;49.014;12.052;2023-07-30T05:08:03;20.40;90.50
19039;DHT22;9652;49.014;12.052;2023-07-30T05:10:30;20.50;90.60
19039;DHT22;9652;49.014;12.052;2023-07-30T05:12:57;20.60;90.80
19039;DHT22;9652;49.014;12.052;2023-07-30T05:15:25;20.60;90.90
19039;DHT22;9652;49.014;12.052;2023-07-30T05:17:53;20.70;91.10
19039;DHT22;9652;49.014;12.052;2023-07-30T05:20:21;20.70;91.10
19039;DHT22;9652;49.014;12.052;2023-07-30T05:22:49;20.80;91.10
19039;DHT22;9652;49.014;12.052;2023-07-30T05:25:16;20.90;91.10
19039;DHT22;9652;49.014;12.052;2023-07-30T05:27:43;20.90;91.30
19039;DHT22;9652;49.014;12.052;2023-07-30T05:30:11;21.00;91.40
19039;DHT22;9652;49.014;12.052;2023-07-30T05:32:38;21.10;91.30
19039;DHT22;9652;49.014;12.052;2023-07-30T05:35:06;21.10;91.40
19039;DHT22;9652;49.014;12.052;2023-07-30T05:37:35;21.20;91.40
19039;DHT22;9652;49.014;12.052;2023-07-30T05:40:02;21.40;91.40
19039;DHT22;9652;49.014;12.052;2023-07-30T05:42:30;21.40;91.20
19039;DHT22;9652;49.014;12.052;2023-07-30T05:44:57;21.40;91.00
19039;DHT22;9652;49.014;12.052;2023-07-30T05:47:24;21.50;90.90
19039;DHT22;9652;49.014;12.052;2023-07-30T05:49:51;21.50;91.00
19039;DHT22;9652;49.014;12.052;2023-07-30T05:52:18;21.60;91.20
19039;DHT22;9652;49.014;12.052;2023-07-30T05:54:47;21.60;91.30
19039;DHT22;9652;49.014;12.052;2023-07-30T05:57:14;21.70;91.40
19039;DHT22;9652;49.014;12.052;2023-07-30T05:59:41;21.70;91.20
19039;DHT22;9652;49.014;12.052;2023-07-30T06:02:08;21.80;90.90
19039;DHT22;9652;49.014;12.052;2023-07-30T06:04:35;21.80;90.90
19039;DHT22;9652;49.014;12.052;2023-07-30T06:07:02;21.90;90.80
19039;DHT22;9652;49.014;12.052;2023-07-30T06:09:30;21.90;90.60
19039;DHT22;9652;49.014;12.052;2023-07-30T06:11:59;21.90;90.50
19039;DHT22;9652;49.014;12.052;2023-07-30T06:14:26;21.90;90.50
19039;DHT22;9652;49.014;12.052;2023-07-30T06:16:53;21.90;90.40
19039;DHT22;9652;49.014;12.052;2023-07-30T06:19:21;21.90;90.50
19039;DHT22;9652;49.014;12.052;2023-07-30T06:21:48;21.90;90.70
19039;DHT22;9652;49.014;12.052;2023-07-30T06:24:15;21.90;90.90
19039;DHT22;9652;49.014;12.052;2023-07-30T06:26:42;22.00;91.30
19039;DHT22;9652;49.014;12.052;2023-07-30T06:29:10;22.10;91.50
19039;DHT22;9652;49.014;12.052;2023-07-30T06:31:37;22.20;91.60
19039;DHT22;9652;49.014;12.052;2023-07-30T06:34:05;22.20;91.50
19039;DHT22;9652;49.014;12.052;2023-07-30T06:36:32;22.30;91.30
19039;DHT22;9652;49.014;12.052;2023-07-30T06:38:59;22.40;91.10
19039;DHT22;9652;49.014;12.052;2023-07-30T06:41:26;22.50;91.10
19039;DHT22;9652;49.014;12.052;2023-07-30T06:43:53;22.50;91.00
19039;DHT22;9652;49.014;12.052;2023-07-30T06:46:25;22.60;91.20
19039;DHT22;9652;49.014;12.052;2023-07-30T06:48:53;22.60;91.30
19039;DHT22;9652;49.014;12.052;2023-07-30T06:51:23;22.70;91.40
19039;DHT22;9652;49.014;12.052;2023-07-30T06:53:51;22.80;91.00
19039;DHT22;9652;49.014;12.052;2023-07-30T06:56:18;22.70;90.70
19039;DHT22;9652;49.014;12.052;2023-07-30T06:58:45;22.80;90.70
19039;DHT22;9652;49.014;12.052;2023-07-30T07:01:12;22.80;91.10
19039;DHT22;9652;49.014;12.052;2023-07-30T07:03:40;22.90;91.50
19039;DHT22;9652;49.014;12.052;2023-07-30T07:06:07;23.10;91.70
19039;DHT22;9652;49.014;12.052;2023-07-30T07:08:34;23.20;91.60
19039;DHT22;9652;49.014;12.052;2023-07-30T07:11:01;23.20;91.60
19039;DHT22;9652;49.014;12.052;2023-07-30T07:13:28;23.30;91.50
19039;DHT22;9652;49.014;12.052;2023-07-30T07:15:55;23.40;91.20
19039;DHT22;9652;49.014;12.052;2023-07-30T07:18:22;23.50;90.70
19039;DHT22;9652;49.014;12.052;2023-07-30T07:20:51;23.50;90.40
19039;DHT22;9652;49.014;12.052;2023-07-30T07:23:18;23.60;90.40
19039;DHT22;9652;49.014;12.052;2023-07-30T07:25:45;23.60;90.60
19039;DHT22;9652;49.014;12.052;2023-07-30T07:28:12;23.70;90.60
19039;DHT22;9652;49.014;12.052;2023-07-30T07:30:39;23.80;90.70
19039;DHT22;9652;49.014;12.052;2023-07-30T07:33:07;23.90;90.70
19039;DHT22;9652;49.014;12.052;2023-07-30T07:35:38;24.00;90.50
19039;DHT22;9652;49.014;12.052;2023-07-30T07:38:06;24.10;90.50
19039;DHT22;9652;49.014;12.052;2023-07-30T07:40:36;24.20;90.30
19039;DHT22;9652;49.014;12.052;2023-07-30T07:43:06;24.20;90.20
19039;DHT22;9652;49.014;12.052;2023-07-30T07:45:33;24.40;90.40
19039;DHT22;9652;49.014;12.052;2023-07-30T07:48:00;24.50;90.30
19039;DHT22;9652;49.014;12.052;2023-07-30T07:50:28;24.60;90.10
19039;DHT22;9652;49.014;12.052;2023-07-30T07:52:55;24.60;88.30
19039;DHT22;9652;49.014;12.052;2023-07-30T07:55:23;24.80;87.70
19039;DHT22;9652;49.014;12.052;2023-07-30T07:57:50;24.80;86.70
19039;DHT22;9652;49.014;12.052;2023-07-30T08:00:18;24.90;87.20
19039;DHT22;9652;49.014;12.052;2023-07-30T08:02:45;24.90;87.60
19039;DHT22;9652;49.014;12.052;2023-07-30T08:05:12;25.00;86.70
19039;DHT22;9652;49.014;12.052;2023-07-30T08:07:40;25.10;85.90
19039;DHT22;9652;49.014;12.052;2023-07-30T08:10:07;25.10;85.20
19039;DHT22;9652;49.014;12.052;2023-07-30T08:12:36;25.20;84.90
19039;DHT22;9652;49.014;12.052;2023-07-30T08:15:03;25.30;84.90
19039;DHT22;9652;49.014;12.052;2023-07-30T08:17:31;25.30;85.00
19039;DHT22;9652;49.014;12.052;2023-07-30T08:19:58;25.30;84.00
19039;DHT22;9652;49.014;12.052;2023-07-30T08:22:25;25.30;82.80
19039;DHT22;9652;49.014;12.052;2023-07-30T08:24:52;25.40;82.00
19039;DHT22;9652;49.014;12.052;2023-07-30T08:27:19;25.30;82.10
19039;DHT22;9652;49.014;12.052;2023-07-30T08:29:48;25.40;81.80
19039;DHT22;9652;49.014;12.052;2023-07-30T08:32:15;25.30;81.30
19039;DHT22;9652;49.014;12.052;2023-07-30T08:34:42;25.30;81.10
19039;DHT22;9652;49.014;12.052;2023-07-30T08:37:09;25.30;81.00
19039;DHT22;9652;49.014;12.052;2023-07-30T08:39:36;25.30;80.60
19039;DHT22;9652;49.014;12.052;2023-07-30T08:42:03;25.20;80.10
19039;DHT22;9652;49.014;12.052;2023-07-30T08:44:30;25.20;80.40
19039;DHT22;9652;49.014;12.052;2023-07-30T08:47:00;25.20;80.20
19039;DHT22;9652;49.014;12.052;2023-07-30T08:49:27;25.10;80.10
19039;DHT22;9652;49.014;12.052;2023-07-30T08:51:59;25.20;80.00
19039;DHT22;9652;49.014;12.052;2023-07-30T08:54:30;25.20;80.70
19039;DHT22;9652;49.014;12.052;2023-07-30T08:56:58;25.30;80.90
19039;DHT22;9652;49.014;12.052;2023-07-30T08:59:27;25.40;81.80
19039;DHT22;9652;49.014;12.052;2023-07-30T09:01:59;25.60;82.10
19039;DHT22;9652;49.014;12.052;2023-07-30T09:04:29;25.90;82.70
19039;DHT22;9652;49.014;12.052;2023-07-30T09:07:00;26.00;81.20
19039;DHT22;9652;49.014;12.052;2023-07-30T09:09:27;26.20;81.20
19039;DHT22;9652;49.014;12.052;2023-07-30T09:11:55;26.50;80.60
19039;DHT22;9652;49.014;12.052;2023-07-30T09:14:22;26.70;80.00
19039;DHT22;9652;49.014;12.052;2023-07-30T09:16:56;26.90;78.80
19039;DHT22;9652;49.014;12.052;2023-07-30T09:19:25;27.00;75.70
19039;DHT22;9652;49.014;12.052;2023-07-30T09:21:53;27.00;76.50
19039;DHT22;9652;49.014;12.052;2023-07-30T09:24:21;27.00;75.70
19039;DHT22;9652;49.014;12.052;2023-07-30T09:26:49;27.00;75.60
19039;DHT22;9652;49.014;12.052;2023-07-30T09:29:16;27.00;75.40
19039;DHT22;9652;49.014;12.052;2023-07-30T09:31:46;27.00;75.20
19039;DHT22;9652;49.014;12.052;2023-07-30T09:34:15;26.90;73.60
19039;DHT22;9652;49.014;12.052;2023-07-30T09:36:45;26.90;74.40
19039;DHT22;9652;49.014;12.052;2023-07-30T09:39:16;26.80;74.60
19039;DHT22;9652;49.014;12.052;2023-07-30T09:41:45;26.60;75.30
19039;DHT22;9652;49.014;12.052;2023-07-30T09:44:12;26.40;75.80
19039;DHT22;9652;49.014;12.052;2023-07-30T09:46:47;26.10;75.50
19039;DHT22;9652;49.014;12.052;2023-07-30T09:49:16;25.80;75.80
19039;DHT22;9652;49.014;12.052;2023-07-30T09:51:45;25.40;76.00
19039;DHT22;9652;49.014;12.052;2023-07-30T09:54:14;25.10;77.40
19039;DHT22;9652;49.014;12.052;2023-07-30T09:56:42;24.80;78.40
19039;DHT22;9652;49.014;12.052;2023-07-30T09:59:10;24.50;79.40
19039;DHT22;9652;49.014;12.052;2023-07-30T10:01:41;24.20;80.20
19039;DHT22;9652;49.014;12.052;2023-07-30T10:04:10;24.10;81.30
19039;DHT22;9652;49.014;12.052;2023-07-30T10:06:41;23.90;81.90
19039;DHT22;9652;49.014;12.052;2023-07-30T10:09:14;23.70;82.40
19039;DHT22;9652;49.014;12.052;2023-07-30T10:11:45;23.50;82.60
19039;DHT22;9652;49.014;12.052;2023-07-30T10:14:14;23.40;82.20
19039;DHT22;9652;49.014;12.052;2023-07-30T10:16:50;23.20;82.50
19039;DHT22;9652;49.014;12.052;2023-07-30T10:19:22;23.10;83.70
19039;DHT22;9652;49.014;12.052;2023-07-30T10:21:50;23.00;84.10
19039;DHT22;9652;49.014;12.052;2023-07-30T10:24:18;22.90;84.90
19039;DHT22;9652;49.014;12.052;2023-07-30T10:26:46;22.80;85.70
19039;DHT22;9652;49.014;12.052;2023-07-30T10:29:15;22.70;86.40
19039;DHT22;9652;49.014;12.052;2023-07-30T10:31:47;22.70;87.40
19039;DHT22;9652;49.014;12.052;2023-07-30T10:34:15;22.70;88.60
19039;DHT22;9652;49.014;12.052;2023-07-30T10:36:44;22.80;90.10
19039;DHT22;9652;49.014;12.052;2023-07-30T10:39:15;22.80;90.70
19039;DHT22;9652;49.014;12.052;2023-07-30T10:41:45;23.00;91.20
19039;DHT22;9652;49.014;12.052;2023-07-30T10:44:23;23.20;91.10
19039;DHT22;9652;49.014;12.052;2023-07-30T10:46:51;23.30;91.00
19039;DHT22;9652;49.014;12.052;2023-07-30T10:49:18;23.50;90.60
19039;DHT22;9652;49.014;12.052;2023-07-30T10:51:45;23.50;90.30
19039;DHT22;9652;49.014;12.052;2023-07-30T10:54:13;23.50;89.80
19039;DHT22;9652;49.014;12.052;2023-07-30T10:56:43;23.50;89.70
19039;DHT22;9652;49.014;12.052;2023-07-30T10:59:11;23.60;90.10
19039;DHT22;9652;49.014;12.052;2023-07-30T11:01:41;23.60;90.20
19039;DHT22;9652;49.014;12.052;2023-07-30T11:04:10;23.60;90.50
19039;DHT22;9652;49.014;12.052;2023-07-30T11:06:39;23.70;90.50
19039;DHT22;9652;49.014;12.052;2023-07-30T11:09:18;23.80;90.30
19039;DHT22;9652;49.014;12.052;2023-07-30T11:11:49;23.80;90.20
19039;DHT22;9652;49.014;12.052;2023-07-30T11:14:17;23.90;90.30
19039;DHT22;9652;49.014;12.052;2023-07-30T11:16:49;23.90;90.50
19039;DHT22;9652;49.014;12.052;2023-07-30T11:19:17;24.00;90.70
19039;DHT22;9652;49.014;12.052;2023-07-30T11:21:45;24.00;90.60
19039;DHT22;9652;49.014;12.052;2023-07-30T11:24:14;24.10;90.80
19039;DHT22;9652;49.014;12.052;2023-07-30T11:26:42;24.20;91.10
19039;DHT22;9652;49.014;12.052;2023-07-30T11:29:18;24.40;91.60
19039;DHT22;9652;49.014;12.052;2023-07-30T11:31:47;24.50;91.90
19039;DHT22;9652;49.014;12.052;2023-07-30T11:34:14;24.70;91.80
19039;DHT22;9652;49.014;12.052;2023-07-30T11:36:44;24.80;91.70
19039;DHT22;9652;49.014;12.052;2023-07-30T11:39:13;25.00;91.50
19039;DHT22;9652;49.014;12.052;2023-07-30T11:41:40;25.10;91.40
19039;DHT22;9652;49.014;12.052;2023-07-30T11:44:08;25.20;91.40
19039;DHT22;9652;49.014;12.052;2023-07-30T11:46:57;25.30;91.70
19039;DHT22;9652;49.014;12.052;2023-07-30T11:49:24;25.50;92.20
19039;DHT22;9652;49.014;12.052;2023-07-30T11:51:51;25.70;92.60
19039;DHT22;9652;49.014;12.052;2023-07-30T11:54:31;25.90;92.60
19039;DHT22;9652;49.014;12.052;2023-07-30T11:56:58;26.10;92.00
19039;DHT22;9652;49.014;12.052;2023-07-30T11:59:25;26.20;90.90
19039;DHT22;9652;49.014;12.052;2023-07-30T12:01:52;26.20;85.80
19039;DHT22;9652;49.014;12.052;2023-07-30T12:04:21;26.00;82.60
19039;DHT22;9652;49.014;12.052;2023-07-30T12:06:51;25.70;82.60
19039;DHT22;9652;49.014;12.052;2023-07-30T12:09:20;25.40;84.70
19039;DHT22;9652;49.014;12.052;2023-07-30T12:11:50;25.20;86.60
19039;DHT22;9652;49.014;12.052;2023-07-30T12:14:18;25.00;86.70
19039;DHT22;9652;49.014;12.052;2023-07-30T12:16:47;24.80;87.00
19039;DHT22;9652;49.014;12.052;2023-07-30T12:19:14;24.70;87.90
19039;DHT22;9652;49.014;12.052;2023-07-30T12:21:42;24.60;88.10
19039;DHT22;9652;49.014;12.052;2023-07-30T12:24:09;24.50;88.80
19039;DHT22;9652;49.014;12.052;2023-07-30T12:26:36;24.40;89.20
19039;DHT22;9652;49.014;12.052;2023-07-30T12:29:04;24.40;90.30
19039;DHT22;9652;49.014;12.052;2023-07-30T12:31:31;24.40;89.40
19039;DHT22;9652;49.014;12.052;2023-07-30T12:33:58;24.40;89.50
19039;DHT22;9652;49.014;12.052;2023-07-30T12:36:25;24.30;87.90
19039;DHT22;9652;49.014;12.052;2023-07-30T12:38:54;24.20;87.90
19039;DHT22;9652;49.014;12.052;2023-07-30T12:41:21;24.20;87.80
19039;DHT22;9652;49.014;12.052;2023-07-30T12:43:51;24.20;88.40
19039;DHT22;9652;49.014;12.052;2023-07-30T12:46:19;24.10;89.30
19039;DHT22;9652;49.014;12.052;2023-07-30T12:48:46;24.10;90.00
19039;DHT22;9652;49.014;12.052;2023-07-30T12:51:13;24.10;90.20
19039;DHT22;9652;49.014;12.052;2023-07-30T12:53:40;24.10;90.50
19039;DHT22;9652;49.014;12.052;2023-07-30T12:56:09;24.20;90.60
19039;DHT22;9652;49.014;12.052;2023-07-30T12:58:36;24.30;91.10
19039;DHT22;9652;49.014;12.052;2023-07-30T13:01:03;24.50;91.60
19039;DHT22;9652;49.014;12.052;2023-07-30T13:03:30;24.50;92.10
19039;DHT22;9652;49.014;12.052;2023-07-30T13:05:58;24.70;92.30
19039;DHT22;9652;49.014;12.052;2023-07-30T13:08:25;24.90;92.20
19039;DHT22;9652;49.014;12.052;2023-07-30T13:10:52;25.00;91.80
19039;DHT22;9652;49.014;12.052;2023-07-30T13:13:20;25.10;90.90
19039;DHT22;9652;49.014;12.052;2023-07-30T13:15:49;25.10;90.00
19039;DHT22;9652;49.014;12.052;2023-07-30T13:18:16;25.10;89.80
19039;DHT22;9652;49.014;12.052;2023-07-30T13:20:43;24.90;89.50
19039;DHT22;9652;49.014;12.052;2023-07-30T13:23:10;25.00;89.50
19039;DHT22;9652;49.014;12.052;2023-07-30T13:25:38;24.90;90.00
19039;DHT22;9652;49.014;12.052;2023-07-30T13:28:05;24.90;90.50
19039;DHT22;9652;49.014;12.052;2023-07-30T13:30:33;24.90;91.20
19039;DHT22;9652;49.014;12.052;2023-07-30T13:33:00;25.00;91.90
19039;DHT22;9652;49.014;12.052;2023-07-30T13:35:27;25.10;91.80
19039;DHT22;9652;49.014;12.052;2023-07-30T13:37:54;25.30;92.00
19039;DHT22;9652;49.014;12.052;2023-07-30T13:40:22;25.40;92.00
19039;DHT22;9652;49.014;12.052;2023-07-30T13:42:49;25.70;93.30
19039;DHT22;9652;49.014;12.052;2023-07-30T13:45:16;25.90;93.80
19039;DHT22;9652;49.014;12.052;2023-07-30T13:47:44;26.30;93.30
19039;DHT22;9652;49.014;12.052;2023-07-30T13:50:11;26.50;92.50
19039;DHT22;9652;49.014;12.052;2023-07-30T13:52:38;26.60;91.80
19039;DHT22;9652;49.014;12.052;2023-07-30T13:55:06;26.70;91.40
19039;DHT22;9652;49.014;12.052;2023-07-30T13:57:34;26.90;91.10
19039;DHT22;9652;49.014;12.052;2023-07-30T14:00:01;27.00;91.10
19039;DHT22;9652;49.014;12.052;2023-07-30T14:02:30;27.10;91.20
19039;DHT22;9652;49.014;12.052;2023-07-30T14:04:58;27.30;91.50
19039;DHT22;9652;49.014;12.052;2023-07-30T14:07:26;27.40;91.30
19039;DHT22;9652;49.014;12.052;2023-07-30T14:09:53;27.70;91.30
19039;DHT22;9652;49.014;12.052;2023-07-30T14:12:20;27.80;91.20
19039;DHT22;9652;49.014;12.052;2023-07-30T14:14:47;28.10;90.80
19039;DHT22;9652;49.014;12.052;2023-07-30T14:17:14;28.20;90.50
19039;DHT22;9652;49.014;12.052;2023-07-30T14:19:41;28.40;90.00
19039;DHT22;9652;49.014;12.052;2023-07-30T14:22:09;28.60;89.90
19039;DHT22;9652;49.014;12.052;2023-07-30T14:24:36;28.80;89.40
19039;DHT22;9652;49.014;12.052;2023-07-30T14:27:04;29.00;87.90
19039;DHT22;9652;49.014;12.052;2023-07-30T14:29:31;29.10;86.90
19039;DHT22;9652;49.014;12.052;2023-07-30T14:31:58;29.20;87.10
19039;DHT22;9652;49.014;12.052;2023-07-30T14:34:25;29.40;87.10
19039;DHT22;9652;49.014;12.052;2023-07-30T14:36:52;29.60;87.20
19039;DHT22;9652;49.014;12.052;2023-07-30T14:39:21;29.80;87.80
19039;DHT22;9652;49.014;12.052;2023-07-30T14:41:48;30.00;87.50
19039;DHT22;9652;49.014;12.052;2023-07-30T14:44:15;30.20;87.20
19039;DHT22;9652;49.014;12.052;2023-07-30T14:46:44;30.40;85.50
19039;DHT22;9652;49.014;12.052;2023-07-30T14:49:11;30.50;84.80
19039;DHT22;9652;49.014;12.052;2023-07-30T14:51:38;30.60;82.50
19039;DHT22;9652;49.014;12.052;2023-07-30T14:54:05;30.60;82.70
19039;DHT22;9652;49.014;12.052;2023-07-30T14:56:34;30.70;82.60
19039;DHT22;9652;49.014;12.052;2023-07-30T14:59:01;30.70;81.80
19039;DHT22;9652;49.014;12.052;2023-07-30T15:01:28;30.70;81.80
19039;DHT22;9652;49.014;12.052;2023-07-30T15:03:56;30.70;81.60
19039;DHT22;9652;49.014;12.052;2023-07-30T15:06:24;30.70;81.00
19039;DHT22;9652;49.014;12.052;2023-07-30T15:08:53;30.80;77.30
19039;DHT22;9652;49.014;12.052;2023-07-30T15:11:20;30.80;76.00
19039;DHT22;9652;49.014;12.052;2023-07-30T15:13:48;30.80;76.90
19039;DHT22;9652;49.014;12.052;2023-07-30T15:16:15;30.80;76.60
19039;DHT22;9652;49.014;12.052;2023-07-30T15:18:42;30.90;77.10
19039;DHT22;9652;49.014;12.052;2023-07-30T15:21:10;31.00;76.60
19039;DHT22;9652;49.014;12.052;2023-07-30T15:23:38;31.10;76.60
19039;DHT22;9652;49.014;12.052;2023-07-30T15:26:05;31.30;75.30
19039;DHT22;9652;49.014;12.052;2023-07-30T15:28:32;31.50;74.70
19039;DHT22;9652;49.014;12.052;2023-07-30T15:31:00;31.60;73.40
19039;DHT22;9652;49.014;12.052;2023-07-30T15:33:27;31.70;70.60
19039;DHT22;9652;49.014;12.052;2023-07-30T15:35:55;31.90;71.40